Time;durP1;ratioP1;P1;durP2;ratioP2;P2;SDS_P1;SDS_P2;PMS_P1;PMS_P2;Temp;Humidity;BMP_temperature;BMP_pressure;BME280_temperature;BME280_humidity;BME280_pressure;Samples;Min_cycle;Max_cycle;Signal;HPM_P1;HPM_P2
2023/10/27 00:01:38;;;;;;;1.30;1.20;;;;;;;10.29;100.00;96425.66;4100493;28;20510;-46
2023/10/27 00:03:40;;;;;;;1.20;1.10;;;;;;;10.29;100.00;96431.13;4087988;28;20681;-46
2023/10/27 00:05:41;;;;;;;1.65;1.17;;;;;;;10.30;100.00;96427.28;4119257;28;20269;-46
2023/10/27 00:07:43;;;;;;;2.92;1.75;;;;;;;10.29;100.00;96436.59;4120244;28;20205;-48
2023/10/27 00:09:45;;;;;;;1.00;1.00;;;;;;;10.31;100.00;96428.91;4117984;28;20210;-47
2023/10/27 00:11:46;;;;;;;1.20;1.17;;;;;;;10.31;100.00;96434.38;4120600;28;20336;-46
2023/10/27 00:13:48;;;;;;;3.30;1.58;;;;;;;10.33;100.00;96427.50;4101717;28;20247;-46
2023/10/27 00:15:50;;;;;;;2.60;1.42;;;;;;;10.34;100.00;96428.31;4138275;28;20555;-46
2023/10/27 00:17:52;;;;;;;0.98;0.90;;;;;;;10.31;100.00;96434.38;4103459;28;20241;-46
2023/10/27 00:19:53;;;;;;;0.98;0.98;;;;;;;10.30;100.00;96424.53;4120701;28;20230;-45
2023/10/27 00:21:55;;;;;;;1.00;0.90;;;;;;;10.32;100.00;96425.88;4124467;28;20757;-45
2023/10/27 00:23:57;;;;;;;0.70;0.70;;;;;;;10.31;100.00;96423.44;4092511;28;20252;-45
2023/10/27 00:25:59;;;;;;;1.02;1.02;;;;;;;10.37;100.00;96422.22;4104572;28;20210;-46
2023/10/27 00:28:01;;;;;;;0.90;0.90;;;;;;;10.33;100.00;96416.56;4117791;28;21183;-46
2023/10/27 00:30:03;;;;;;;1.13;1.05;;;;;;;10.31;100.00;96417.97;4117439;28;20242;-46
2023/10/27 00:32:05;;;;;;;1.55;0.90;;;;;;;10.44;100.00;96417.19;4122179;28;20202;-46
2023/10/27 00:34:07;;;;;;;1.65;0.80;;;;;;;10.33;100.00;96415.72;4122264;28;20234;-47
2023/10/27 00:36:08;;;;;;;0.68;0.68;;;;;;;10.32;100.00;96419.59;4106550;28;20210;-49
2023/10/27 00:38:10;;;;;;;0.55;0.55;;;;;;;10.32;100.00;96409.47;4137369;28;20216;-46
2023/10/27 00:40:12;;;;;;;0.90;0.90;;;;;;;10.33;100.00;96405.63;4108561;28;20265;-47
2023/10/27 00:42:14;;;;;;;2.95;0.77;;;;;;;10.29;100.00;96403.78;4137402;28;20297;-45
2023/10/27 00:44:16;;;;;;;1.20;1.10;;;;;;;10.29;100.00;96401.06;4140094;28;20577;-46
2023/10/27 00:46:18;;;;;;;0.50;0.50;;;;;;;10.29;100.00;96398.31;4120477;28;20217;-47
2023/10/27 00:48:20;;;;;;;0.70;0.70;;;;;;;10.31;100.00;96407.03;4121580;28;20256;-46
2023/10/27 00:50:22;;;;;;;0.57;0.57;;;;;;;10.27;100.00;96404.09;4109486;28;20811;-45
2023/10/27 00:52:25;;;;;;;0.70;0.70;;;;;;;10.30;100.00;96399.94;4106135;28;20203;-46
2023/10/27 00:54:27;;;;;;;0.80;0.50;;;;;;;10.32;100.00;96397.72;4102485;28;20250;-47
2023/10/27 00:56:29;;;;;;;3.17;0.73;;;;;;;10.31;100.00;96396.09;4103878;28;20269;-45
2023/10/27 00:58:31;;;;;;;0.80;0.80;;;;;;;10.35;100.00;96397.13;4119598;28;20230;-45
2023/10/27 01:00:33;;;;;;;0.82;0.82;;;;;;;10.36;100.00;96394.06;4102564;28;20703;-45
2023/10/27 01:02:34;;;;;;;0.65;0.65;;;;;;;10.30;100.00;96399.94;4133601;28;20271;-45
2023/10/27 01:04:37;;;;;;;1.25;0.80;;;;;;;10.31;100.00;96390.63;4103237;28;20231;-48
2023/10/27 01:06:39;;;;;;;0.60;0.60;;;;;;;10.29;100.00;96384.66;4108880;28;20889;-47
2023/10/27 01:08:41;;;;;;;1.10;1.10;;;;;;;10.33;100.00;96382.94;4134827;28;20201;-46
2023/10/27 01:10:42;;;;;;;1.00;0.95;;;;;;;10.30;100.00;96383.53;4105397;28;20634;-47
2023/10/27 01:12:47;;;;;;;6.85;1.50;;;;;;;10.28;100.00;96383.03;4100851;28;20263;-47
2023/10/27 01:14:49;;;;;;;1.20;1.13;;;;;;;10.29;100.00;96388.19;4118660;28;20238;-45
2023/10/27 01:16:50;;;;;;;1.88;1.10;;;;;;;10.30;100.00;96381.63;4121604;28;20683;-46
2023/10/27 01:18:53;;;;;;;0.75;0.75;;;;;;;10.43;100.00;96382.75;4119181;28;20237;-45
2023/10/27 01:20:55;;;;;;;5.97;1.00;;;;;;;10.37;100.00;96379.31;4105496;28;20298;-48
2023/10/27 01:22:56;;;;;;;2.25;1.48;;;;;;;10.40;100.00;96375.16;4105016;28;20222;-45
2023/10/27 01:24:58;;;;;;;0.63;0.50;;;;;;;10.34;100.00;96368.19;4105283;28;21202;-45
2023/10/27 01:27:00;;;;;;;1.75;1.27;;;;;;;10.39;100.00;96366.16;4120427;28;20210;-44
2023/10/27 01:29:02;;;;;;;0.85;0.70;;;;;;;10.45;100.00;96372.34;4104801;28;20207;-46
2023/10/27 01:31:04;;;;;;;5.88;1.35;;;;;;;10.35;100.00;96364.31;4105725;28;20894;-45
2023/10/27 01:33:05;;;;;;;0.68;0.68;;;;;;;10.33;100.00;96361.06;4117377;28;20222;-46
2023/10/27 01:35:10;;;;;;;1.08;1.08;;;;;;;10.36;100.00;96374.16;4135799;28;20229;-45
2023/10/27 01:37:11;;;;;;;0.60;0.60;;;;;;;10.31;100.00;96363.28;4102834;28;20216;-47
2023/10/27 01:39:14;;;;;;;6.15;1.48;;;;;;;10.30;100.00;96361.69;4104361;28;20222;-46
2023/10/27 01:41:17;;;;;;;0.65;0.65;;;;;;;10.33;100.00;96363.78;4118967;28;20280;-48
2023/10/27 01:43:18;;;;;;;3.95;0.80;;;;;;;10.36;100.00;96360.47;4120695;28;20807;-47
2023/10/27 01:45:20;;;;;;;2.33;0.90;;;;;;;10.38;100.00;96360.97;4121930;28;20788;-47
2023/10/27 01:47:22;;;;;;;2.30;1.52;;;;;;;10.36;100.00;96358.53;4100151;28;20665;-45
2023/10/27 01:49:23;;;;;;;1.33;1.23;;;;;;;10.25;100.00;96353.56;4103173;28;20294;-45
2023/10/27 01:51:25;;;;;;;0.80;0.80;;;;;;;10.28;100.00;96351.03;4118931;28;20218;-45
2023/10/27 01:53:28;;;;;;;1.60;1.42;;;;;;;10.36;100.00;96355.81;4118339;28;20210;-45
2023/10/27 01:55:29;;;;;;;10.85;1.17;;;;;;;10.24;100.00;96352.78;4112241;28;20313;-44
2023/10/27 01:57:31;;;;;;;1.48;0.98;;;;;;;10.37;100.00;96356.63;4124996;28;20214;-44
2023/10/27 01:59:33;;;;;;;2.38;0.95;;;;;;;10.33;100.00;96361.06;4105750;28;20219;-45
2023/10/27 02:01:35;;;;;;;0.90;0.90;;;;;;;10.36;100.00;96349.53;4107822;28;20574;-45
2023/10/27 02:03:37;;;;;;;1.17;1.17;;;;;;;10.34;100.00;96351.78;4101610;28;20266;-44
2023/10/27 02:05:43;;;;;;;1.02;0.82;;;;;;;10.36;100.00;96352.28;4104772;28;20235;-45
2023/10/27 02:07:44;;;;;;;1.55;1.35;;;;;;;10.46;100.00;96354.81;4120846;28;20206;-43
2023/10/27 02:09:46;;;;;;;1.88;0.98;;;;;;;10.38;100.00;96352.78;4106290;28;20218;-43
2023/10/27 02:11:48;;;;;;;4.85;1.25;;;;;;;10.35;100.00;96337.00;4136634;28;20214;-42
2023/10/27 02:13:52;;;;;;;4.35;1.00;;;;;;;10.39;100.00;96343.47;4119073;28;21202;-44
2023/10/27 02:15:54;;;;;;;0.70;0.70;;;;;;;10.35;100.00;96342.47;4118216;28;20214;-44
2023/10/27 02:17:56;;;;;;;1.30;1.25;;;;;;;10.32;100.00;96337.59;4117857;28;20213;-44
2023/10/27 02:19:58;;;;;;;3.15;1.30;;;;;;;10.32;100.00;96334.84;4105271;28;20236;-46
2023/10/27 02:22:00;;;;;;;0.63;0.63;;;;;;;10.39;100.00;96343.47;4104650;28;20215;-44
2023/10/27 02:24:02;;;;;;;0.93;0.90;;;;;;;10.31;100.00;96330.50;4104419;28;20329;-44
2023/10/27 02:26:03;;;;;;;0.80;0.80;;;;;;;10.40;100.00;96334.16;4102649;28;20665;-45
2023/10/27 02:28:05;;;;;;;0.98;0.80;;;;;;;10.50;100.00;96329.31;4120825;28;21770;-45
2023/10/27 02:30:08;;;;;;;0.95;0.95;;;;;;;10.49;100.00;96321.41;4102416;28;20211;-45
2023/10/27 02:32:10;;;;;;;1.20;0.90;;;;;;;10.42;100.00;96334.66;4102615;28;20306;-43
2023/10/27 02:34:11;;;;;;;0.68;0.68;;;;;;;10.40;100.00;96325.94;4088119;28;20230;-44
2023/10/27 02:36:13;;;;;;;0.60;0.60;;;;;;;10.47;100.00;96312.72;4104674;28;20211;-43
2023/10/27 02:38:15;;;;;;;0.85;0.85;;;;;;;10.43;100.00;96311.69;4105668;28;20600;-44
2023/10/27 02:40:16;;;;;;;4.50;0.70;;;;;;;10.45;100.00;96312.19;4101951;28;20210;-44
2023/10/27 02:42:19;;;;;;;3.08;1.42;;;;;;;10.41;100.00;96313.91;4115926;28;20631;-44
2023/10/27 02:44:20;;;;;;;1.35;0.80;;;;;;;10.49;100.00;96308.53;4119545;28;20229;-44
2023/10/27 02:46:22;;;;;;;1.02;1.02;;;;;;;10.37;100.00;96312.91;4103205;28;20302;-44
2023/10/27 02:48:24;;;;;;;1.90;1.30;;;;;;;10.42;100.00;96304.59;4102437;28;20617;-45
2023/10/27 02:50:26;;;;;;;1.15;0.90;;;;;;;10.36;100.00;96311.28;4136129;28;20237;-44
2023/10/27 02:52:28;;;;;;;1.15;1.02;;;;;;;10.38;100.00;96309.03;4120604;28;20206;-44
2023/10/27 02:54:29;;;;;;;0.90;0.90;;;;;;;10.34;100.00;96308.03;4117775;28;20234;-44
2023/10/27 02:56:31;;;;;;;1.30;0.70;;;;;;;10.38;100.00;96298.09;4118669;28;20207;-44
2023/10/27 02:58:33;;;;;;;0.65;0.65;;;;;;;10.36;100.00;96303.06;4118316;28;20316;-44
2023/10/27 03:00:39;;;;;;;0.70;0.70;;;;;;;10.33;100.00;96295.47;4103164;28;20214;-45
2023/10/27 03:02:41;;;;;;;1.85;1.13;;;;;;;10.37;100.00;96293.75;4119307;28;20214;-43
2023/10/27 03:04:43;;;;;;;1.15;1.15;;;;;;;10.36;100.00;96289.41;4104424;28;20661;-45
2023/10/27 03:06:45;;;;;;;0.50;0.50;;;;;;;10.35;100.00;96283.13;4119010;28;20264;-45
2023/10/27 03:08:46;;;;;;;4.22;0.90;;;;;;;10.27;100.00;96283.03;4102476;28;20203;-45
2023/10/27 03:10:48;;;;;;;0.75;0.75;;;;;;;10.31;100.00;96286.75;4101489;28;20242;-48
2023/10/27 03:12:50;;;;;;;1.20;0.85;;;;;;;10.26;100.00;96284.13;4121138;28;20210;-46
2023/10/27 03:14:52;;;;;;;4.80;1.42;;;;;;;10.36;100.00;96278.47;4116399;28;20237;-45
2023/10/27 03:16:54;;;;;;;2.75;0.50;;;;;;;10.34;100.00;96286.19;4100773;28;20199;-43
2023/10/27 03:18:55;;;;;;;0.43;0.43;;;;;;;10.34;100.00;96291.66;4100336;28;20227;-44
2023/10/27 03:20:59;;;;;;;0.88;0.80;;;;;;;10.29;100.00;96284.31;4117433;28;20233;-44
2023/10/27 03:23:01;;;;;;;0.70;0.70;;;;;;;10.29;100.00;96287.06;4099807;28;20218;-44
2023/10/27 03:25:03;;;;;;;3.70;1.23;;;;;;;10.31;100.00;96281.31;4116665;28;20235;-44
2023/10/27 03:27:05;;;;;;;2.60;0.90;;;;;;;10.29;100.00;96294.47;4136250;28;20209;-44
2023/10/27 03:29:07;;;;;;;0.70;0.70;;;;;;;10.26;100.00;96289.59;4117869;28;20218;-45
2023/10/27 03:31:12;;;;;;;1.00;0.70;;;;;;;10.29;100.00;96292.53;4084581;28;20239;-45
2023/10/27 03:33:16;;;;;;;1.00;1.00;;;;;;;10.31;100.00;96303.16;4119189;28;20812;-45
2023/10/27 03:35:18;;;;;;;0.80;0.80;;;;;;;10.26;100.00;96289.59;4134785;28;20461;-45
2023/10/27 03:37:19;;;;;;;1.35;1.15;;;;;;;10.38;100.00;96292.66;4117010;28;20260;-45
2023/10/27 03:39:21;;;;;;;4.10;1.38;;;;;;;10.36;100.00;96292.16;4101492;28;20226;-45
2023/10/27 03:41:23;;;;;;;2.10;1.38;;;;;;;10.26;100.00;96290.41;4133978;28;20664;-44
2023/10/27 03:43:24;;;;;;;0.60;0.60;;;;;;;10.29;100.00;96297.19;4085191;28;20211;-46
2023/10/27 03:45:26;;;;;;;0.65;0.65;;;;;;;10.30;100.00;96283.25;4118022;28;20237;-44
2023/10/27 03:47:28;;;;;;;1.38;1.20;;;;;;;10.26;100.00;96284.13;4131573;28;20213;-44
2023/10/27 03:49:33;;;;;;;0.70;0.70;;;;;;;10.27;100.00;96285.78;4134685;28;20718;-46
2023/10/27 03:51:35;;;;;;;0.80;0.80;;;;;;;10.25;100.00;96285.25;4137225;28;20205;-43
2023/10/27 03:53:37;;;;;;;1.05;1.05;;;;;;;10.19;100.00;96286.44;4101456;28;20215;-43
2023/10/27 03:55:39;;;;;;;1.23;1.23;;;;;;;10.25;100.00;96282.50;4100713;28;20222;-45
2023/10/27 03:57:41;;;;;;;1.23;1.05;;;;;;;10.26;100.00;96284.13;4101742;28;20207;-44
2023/10/27 03:59:42;;;;;;;1.08;1.08;;;;;;;10.16;100.00;96279.66;4118238;28;20288;-44
2023/10/27 04:01:45;;;;;;;1.08;1.02;;;;;;;10.24;100.00;96278.16;4100557;28;22387;-45
2023/10/27 04:03:49;;;;;;;0.95;0.82;;;;;;;10.14;100.00;96283.81;4101056;28;20206;-45
2023/10/27 04:05:51;;;;;;;2.28;1.10;;;;;;;10.17;100.00;96272.28;4101871;28;20649;-46
2023/10/27 04:07:53;;;;;;;1.77;1.45;;;;;;;10.16;100.00;96267.94;4087822;28;20683;-47
2023/10/27 04:09:54;;;;;;;0.75;0.75;;;;;;;10.17;100.00;96264.09;4090533;28;20216;-45
2023/10/27 04:11:56;;;;;;;1.13;1.13;;;;;;;10.18;100.00;96265.69;4119490;28;20749;-46
2023/10/27 04:13:58;;;;;;;3.80;1.42;;;;;;;10.25;100.00;96271.56;4099704;28;20215;-44
2023/10/27 04:16:00;;;;;;;0.98;0.82;;;;;;;10.14;100.00;96270.97;4120408;28;20270;-44
2023/10/27 04:18:02;;;;;;;2.75;1.75;;;;;;;10.19;100.00;96267.31;4116828;28;20233;-44
2023/10/27 04:20:04;;;;;;;0.68;0.68;;;;;;;10.17;100.00;96264.91;4100966;28;20270;-44
2023/10/27 04:22:07;;;;;;;1.48;1.35;;;;;;;10.14;100.00;96275.63;4102450;28;20203;-43
2023/10/27 04:24:09;;;;;;;0.60;0.60;;;;;;;10.18;100.00;96271.16;4101381;28;20281;-45
2023/10/27 04:26:11;;;;;;;0.82;0.82;;;;;;;10.08;100.00;96276.84;4116309;28;20211;-46
2023/10/27 04:28:14;;;;;;;1.58;1.05;;;;;;;10.08;100.00;96276.84;4118945;28;20210;-43
2023/10/27 04:30:15;;;;;;;1.05;0.95;;;;;;;10.07;100.00;96275.22;4102881;28;20828;-43
2023/10/27 04:32:19;;;;;;;0.80;0.80;;;;;;;10.07;100.00;96273.28;4115369;28;20687;-44
2023/10/27 04:34:21;;;;;;;0.75;0.75;;;;;;;10.07;100.00;96272.50;4100430;28;20223;-45
2023/10/27 04:36:22;;;;;;;0.80;0.80;;;;;;;10.06;100.00;96265.38;4100861;28;20688;-44
2023/10/27 04:38:24;;;;;;;1.02;1.00;;;;;;;10.05;100.00;96261.03;4103064;28;20235;-43
2023/10/27 04:40:28;;;;;;;0.90;0.90;;;;;;;10.01;100.00;96266.25;4103390;28;20226;-43
2023/10/27 04:42:30;;;;;;;0.60;0.60;;;;;;;10.01;100.00;96276.38;4118713;28;20305;-43
2023/10/27 04:44:32;;;;;;;1.90;1.80;;;;;;;10.01;100.00;96270.94;4120085;28;20237;-44
2023/10/27 04:46:33;;;;;;;0.57;0.57;;;;;;;10.00;100.00;96269.28;4119878;28;20211;-44
2023/10/27 04:48:35;;;;;;;1.08;1.08;;;;;;;9.98;100.00;96266.03;4118870;28;20210;-44
2023/10/27 04:50:37;;;;;;;0.80;0.80;;;;;;;10.03;100.00;96274.16;4116709;28;20229;-45
2023/10/27 04:52:39;;;;;;;0.65;0.65;;;;;;;10.01;100.00;96260.00;4116262;28;20206;-46
2023/10/27 04:54:41;;;;;;;0.60;0.60;;;;;;;10.00;100.00;96255.63;4099384;28;20267;-45
2023/10/27 04:56:43;;;;;;;0.65;0.65;;;;;;;10.06;100.00;96262.66;4133447;28;20268;-44
2023/10/27 04:58:44;;;;;;;1.27;1.27;;;;;;;9.99;100.00;96249.38;4100580;28;20677;-44
2023/10/27 05:00:46;;;;;;;1.40;1.05;;;;;;;10.02;100.00;96242.50;4117970;28;20284;-44
2023/10/27 05:02:50;;;;;;;2.58;2.47;;;;;;;10.02;100.00;96237.03;4122326;28;20215;-44
2023/10/27 05:04:52;;;;;;;1.55;1.45;;;;;;;9.96;100.00;96238.22;4102168;28;20294;-45
2023/10/27 05:06:53;;;;;;;0.77;0.77;;;;;;;10.00;100.00;96231.03;4085533;28;20563;-46
2023/10/27 05:08:55;;;;;;;2.28;1.05;;;;;;;10.03;100.00;96230.44;4102123;28;20211;-43
2023/10/27 05:10:57;;;;;;;0.82;0.82;;;;;;;10.08;100.00;96233.13;4101794;28;20273;-44
2023/10/27 05:12:59;;;;;;;2.38;1.02;;;;;;;10.10;100.00;96230.88;4098322;28;20781;-43
2023/10/27 05:15:01;;;;;;;0.80;0.80;;;;;;;10.03;100.00;96227.72;4118332;28;20701;-44
2023/10/27 05:17:03;;;;;;;1.08;1.08;;;;;;;9.99;100.00;96224.78;4117938;28;20221;-45
2023/10/27 05:19:04;;;;;;;5.72;1.02;;;;;;;9.90;100.00;96223.88;4104779;28;20231;-44
2023/10/27 05:21:13;;;;;;;1.08;1.08;;;;;;;9.96;100.00;96228.09;4115338;28;20214;-44
2023/10/27 05:23:15;;;;;;;1.45;0.93;;;;;;;9.95;100.00;96233.88;4108351;28;20218;-44
2023/10/27 05:25:17;;;;;;;0.70;0.70;;;;;;;9.98;100.00;96227.81;4118465;28;20259;-44
2023/10/27 05:27:19;;;;;;;1.42;0.70;;;;;;;10.02;100.00;96228.84;4105042;28;20221;-44
2023/10/27 05:29:20;;;;;;;1.10;1.10;;;;;;;10.04;100.00;96232.09;4120679;28;20621;-46
2023/10/27 05:31:23;;;;;;;0.80;0.80;;;;;;;10.07;100.00;96221.38;4105424;28;20621;-44
2023/10/27 05:33:25;;;;;;;0.95;0.90;;;;;;;10.05;100.00;96220.06;4120845;28;20245;-44
2023/10/27 05:35:27;;;;;;;1.58;0.70;;;;;;;10.04;100.00;96221.16;4103389;28;20231;-44
2023/10/27 05:37:29;;;;;;;1.27;1.17;;;;;;;10.02;100.00;96215.16;4105226;28;20234;-45
2023/10/27 05:39:31;;;;;;;1.67;1.23;;;;;;;9.93;100.00;96208.78;4111386;28;20233;-45
2023/10/27 05:41:33;;;;;;;1.85;1.48;;;;;;;10.00;100.00;96220.09;4103588;28;20761;-44
2023/10/27 05:43:34;;;;;;;0.80;0.80;;;;;;;9.90;100.00;96220.31;4106668;28;20247;-44
2023/10/27 05:45:36;;;;;;;1.10;1.00;;;;;;;9.96;100.00;96216.38;4102513;28;20230;-45
2023/10/27 05:47:38;;;;;;;1.40;1.30;;;;;;;9.94;100.00;96215.88;4121065;28;20218;-44
2023/10/27 05:49:40;;;;;;;0.77;0.77;;;;;;;9.94;100.00;96215.88;4121039;28;20222;-44
2023/10/27 05:51:42;;;;;;;0.60;0.60;;;;;;;9.91;100.00;96219.19;4120248;28;20630;-44
2023/10/27 05:53:44;;;;;;;0.90;0.82;;;;;;;9.95;100.00;96212.03;4120304;28;20296;-45
2023/10/27 05:55:46;;;;;;;0.68;0.68;;;;;;;9.91;100.00;96221.94;4116367;28;20667;-44
2023/10/27 05:57:47;;;;;;;0.75;0.75;;;;;;;9.92;100.00;96213.44;4104096;28;20229;-46
2023/10/27 05:59:49;;;;;;;0.68;0.68;;;;;;;9.97;100.00;96227.00;4102518;28;20234;-44
2023/10/27 06:01:54;;;;;;;0.75;0.75;;;;;;;10.01;100.00;96219.03;4134974;28;20213;-44
2023/10/27 06:04:11;;;;;;;0.50;0.50;;;;;;;9.96;100.00;96217.16;4115446;28;20242;-44
2023/10/27 06:06:14;;;;;;;0.93;0.93;;;;;;;10.02;100.00;96224.16;4117352;28;20292;-45
2023/10/27 06:08:16;;;;;;;0.70;0.70;;;;;;;10.06;100.00;96218.94;4134567;28;20979;-44
2023/10/27 06:10:20;;;;;;;0.88;0.88;;;;;;;10.05;100.00;96228.25;4100211;28;20214;-44
2023/10/27 06:12:22;;;;;;;0.50;0.50;;;;;;;10.09;100.00;96229.28;4103184;28;20861;-44
2023/10/27 06:14:24;;;;;;;0.50;0.50;;;;;;;10.01;100.00;96224.47;4102134;28;20791;-44
2023/10/27 06:16:25;;;;;;;0.60;0.60;;;;;;;10.03;100.00;96224.97;4117499;28;20807;-45
2023/10/27 06:18:27;;;;;;;0.60;0.60;;;;;;;10.04;100.00;96232.09;4119841;28;20237;-43
2023/10/27 06:20:29;;;;;;;0.50;0.50;;;;;;;10.03;100.00;96235.91;4103033;28;20757;-46
2023/10/27 06:22:31;;;;;;;0.55;0.55;;;;;;;10.05;100.00;96231.81;4102968;28;20293;-45
2023/10/27 06:24:33;;;;;;;0.70;0.70;;;;;;;10.02;100.00;96240.56;4118210;28;20226;-44
2023/10/27 06:26:35;;;;;;;0.60;0.60;;;;;;;10.05;100.00;96242.72;4106931;28;20211;-44
2023/10/27 06:28:36;;;;;;;0.70;0.70;;;;;;;10.05;100.00;96233.72;4116138;28;20651;-44
2023/10/27 06:30:38;;;;;;;0.60;0.60;;;;;;;10.00;100.00;96236.50;4136619;28;20369;-44
2023/10/27 06:32:40;;;;;;;0.65;0.65;;;;;;;10.05;100.00;96239.16;4132316;28;20206;-44
2023/10/27 06:34:42;;;;;;;0.52;0.52;;;;;;;10.01;100.00;96238.94;4106676;28;20227;-45
2023/10/27 06:36:44;;;;;;;3.55;0.65;;;;;;;10.04;100.00;96243.03;4099720;28;20294;-44
2023/10/27 06:38:46;;;;;;;1.08;0.70;;;;;;;10.04;100.00;96248.47;4102027;28;20211;-44
2023/10/27 06:40:47;;;;;;;1.13;0.90;;;;;;;10.01;100.00;96265.47;4104421;28;20219;-44
2023/10/27 06:42:49;;;;;;;0.85;0.85;;;;;;;10.01;100.00;96255.31;4103617;28;20715;-45
2023/10/27 06:44:51;;;;;;;0.60;0.60;;;;;;;10.03;100.00;96252.31;4134604;28;20756;-44
2023/10/27 06:46:53;;;;;;;0.50;0.50;;;;;;;10.03;100.00;96269.53;4104553;28;20223;-44
2023/10/27 06:48:55;;;;;;;0.57;0.57;;;;;;;10.04;100.00;96260.25;4131761;28;20221;-44
2023/10/27 06:50:57;;;;;;;0.82;0.82;;;;;;;10.04;100.00;96276.63;4118157;28;20210;-44
2023/10/27 06:52:59;;;;;;;0.57;0.57;;;;;;;10.03;100.00;96279.63;4118830;28;20218;-45
2023/10/27 06:55:04;;;;;;;0.50;0.50;;;;;;;10.06;100.00;96304.44;4117866;28;20234;-44
2023/10/27 06:57:10;;;;;;;0.68;0.68;;;;;;;10.06;100.00;96289.97;4105147;28;20298;-44
2023/10/27 06:59:12;;;;;;;0.60;0.60;;;;;;;10.09;100.00;96301.09;4139664;28;20206;-44
2023/10/27 07:01:15;;;;;;;0.50;0.50;;;;;;;10.05;100.00;96311.03;4116607;28;20284;-47
2023/10/27 07:03:17;;;;;;;1.55;1.45;;;;;;;10.04;100.00;96323.06;4116928;28;20206;-45
2023/10/27 07:05:32;;;;;;;0.80;0.80;;;;;;;10.04;100.00;96336.75;4098046;28;20234;-44
2023/10/27 07:07:34;;;;;;;0.50;0.50;;;;;;;10.05;100.00;96326.59;4119014;28;20249;-44
2023/10/27 07:09:38;;;;;;;0.55;0.55;;;;;;;10.08;100.00;96337.75;4118301;28;20217;-43
2023/10/27 07:11:40;;;;;;;0.45;0.45;;;;;;;10.06;100.00;96344.59;4118637;28;20229;-44
2023/10/27 07:13:42;;;;;;;1.83;1.00;;;;;;;10.01;100.00;96347.41;4119342;28;20618;-43
2023/10/27 07:15:44;;;;;;;0.47;0.47;;;;;;;10.00;100.00;96356.69;4104396;28;20306;-45
2023/10/27 07:17:46;;;;;;;0.75;0.75;;;;;;;10.00;100.00;96362.16;4136990;28;20220;-44
2023/10/27 07:19:47;;;;;;;0.60;0.60;;;;;;;10.06;100.00;96358.28;4119646;28;20238;-45
2023/10/27 07:21:51;;;;;;;0.50;0.50;;;;;;;10.04;100.00;96369.53;4119310;28;20789;-43
2023/10/27 07:23:53;;;;;;;0.52;0.52;;;;;;;10.07;100.00;96368.13;4120136;28;20215;-44
2023/10/27 07:25:55;;;;;;;0.70;0.70;;;;;;;10.11;100.00;96385.50;4101616;28;20221;-44
2023/10/27 07:27:57;;;;;;;0.63;0.63;;;;;;;10.10;100.00;96389.34;4116937;28;20558;-44
2023/10/27 07:29:58;;;;;;;0.60;0.60;;;;;;;10.09;100.00;96393.22;4103854;28;20223;-44
2023/10/27 07:32:00;;;;;;;0.60;0.60;;;;;;;10.12;100.00;96403.53;4107192;28;20577;-44
2023/10/27 07:34:02;;;;;;;0.40;0.40;;;;;;;10.12;100.00;96403.53;4105943;28;20282;-45
2023/10/27 07:36:07;;;;;;;1.15;0.82;;;;;;;10.08;100.00;96399.78;4130811;28;20329;-44
2023/10/27 07:38:08;;;;;;;0.40;0.40;;;;;;;10.12;100.00;96406.25;4100988;28;20219;-45
2023/10/27 07:40:11;;;;;;;5.78;1.08;;;;;;;10.12;100.00;96411.72;4102152;28;20223;-45
2023/10/27 07:42:13;;;;;;;0.90;0.90;;;;;;;10.12;100.00;96419.91;4117919;28;20293;-45
2023/10/27 07:44:15;;;;;;;0.60;0.60;;;;;;;10.15;100.00;96414.66;4116193;28;20218;-45
2023/10/27 07:46:17;;;;;;;0.70;0.70;;;;;;;10.21;100.00;96426.34;4120495;28;20201;-43
2023/10/27 07:48:19;;;;;;;0.60;0.60;;;;;;;10.20;100.00;96435.63;4134504;28;20218;-46
2023/10/27 07:50:21;;;;;;;0.77;0.77;;;;;;;10.20;100.00;96441.09;4135397;28;20344;-44
2023/10/27 07:52:22;;;;;;;0.70;0.70;;;;;;;10.17;100.00;96450.72;4132847;28;20209;-44
2023/10/27 07:54:25;;;;;;;0.88;0.88;;;;;;;10.19;100.00;96447.69;4129865;28;20233;-44
2023/10/27 07:56:26;;;;;;;0.77;0.77;;;;;;;10.19;100.00;96458.59;4115185;28;20210;-44
2023/10/27 07:58:28;;;;;;;0.50;0.50;;;;;;;10.19;100.00;96459.44;4134623;28;20216;-44
2023/10/27 08:00:31;;;;;;;0.88;0.88;;;;;;;10.21;100.00;96459.94;4117839;28;20233;-45
2023/10/27 08:02:33;;;;;;;0.60;0.60;;;;;;;10.17;100.00;96466.31;4115291;28;20209;-44
2023/10/27 08:04:37;;;;;;;0.65;0.65;;;;;;;10.18;100.00;96467.91;4117219;28;20234;-43
2023/10/27 08:06:39;;;;;;;0.75;0.75;;;;;;;10.21;100.00;96478.28;4135835;28;21252;-44
2023/10/27 08:08:40;;;;;;;0.70;0.70;;;;;;;10.21;100.00;96478.28;4116444;28;20210;-44
2023/10/27 08:10:46;;;;;;;0.52;0.52;;;;;;;10.22;100.00;96485.34;4118395;28;20235;-44
2023/10/27 08:12:48;;;;;;;0.68;0.68;;;;;;;10.23;100.00;96490.53;4100747;28;20776;-46
2023/10/27 08:14:50;;;;;;;0.70;0.70;;;;;;;10.36;100.00;96487.03;4135980;28;20229;-44
2023/10/27 08:16:52;;;;;;;0.60;0.60;;;;;;;10.40;100.00;96492.69;4100616;28;20336;-45
2023/10/27 08:18:54;;;;;;;0.65;0.65;;;;;;;10.35;100.00;96501.00;4133054;28;20249;-46
2023/10/27 08:20:56;;;;;;;1.75;0.90;;;;;;;10.36;100.00;96497.16;4101512;28;20318;-44
2023/10/27 08:22:59;;;;;;;0.60;0.60;;;;;;;10.35;100.00;96495.53;4133809;28;20248;-45
2023/10/27 08:25:01;;;;;;;0.60;0.60;;;;;;;10.40;100.00;96495.44;4116795;28;20242;-44
2023/10/27 08:27:02;;;;;;;0.70;0.70;;;;;;;10.38;100.00;96494.94;4101143;28;20264;-44
2023/10/27 08:29:04;;;;;;;0.70;0.70;;;;;;;10.35;100.00;96495.53;4096110;28;20699;-44
2023/10/27 08:31:07;;;;;;;0.50;0.50;;;;;;;10.41;100.00;96505.28;4103907;28;20246;-46
2023/10/27 08:33:14;;;;;;;0.60;0.60;;;;;;;10.37;100.00;96501.50;4103127;28;20199;-45
2023/10/27 08:35:22;;;;;;;0.50;0.50;;;;;;;10.44;100.00;96499.22;4119688;28;20236;-44
2023/10/27 08:37:34;;;;;;;0.80;0.80;;;;;;;10.38;100.00;96511.31;4108616;28;20561;-44
2023/10/27 08:39:36;;;;;;;0.40;0.40;;;;;;;10.39;100.00;96507.47;4115921;28;20308;-44
2023/10/27 08:41:38;;;;;;;0.65;0.65;;;;;;;10.37;100.00;96516.00;4117007;28;20258;-44
2023/10/27 08:43:41;;;;;;;0.80;0.80;;;;;;;10.39;100.00;96518.41;4117526;28;20210;-45
2023/10/27 08:45:43;;;;;;;0.60;0.60;;;;;;;10.47;100.00;96515.03;4118866;28;20898;-45
2023/10/27 08:47:45;;;;;;;0.60;0.60;;;;;;;10.47;100.00;96526.75;4087097;28;20223;-44
2023/10/27 08:49:47;;;;;;;1.05;0.70;;;;;;;10.43;100.00;96531.22;4132150;28;20201;-44
2023/10/27 08:51:49;;;;;;;0.63;0.63;;;;;;;10.47;100.00;96531.44;4084634;28;20215;-45
2023/10/27 08:53:51;;;;;;;0.65;0.65;;;;;;;10.41;100.00;96527.16;4139425;28;20206;-44
2023/10/27 08:55:54;;;;;;;0.50;0.50;;;;;;;10.45;100.00;96534.47;4107735;28;20207;-44
2023/10/27 08:57:56;;;;;;;0.60;0.60;;;;;;;10.53;100.00;96536.50;4105933;28;20208;-44
2023/10/27 08:59:58;;;;;;;0.60;0.60;;;;;;;10.61;100.00;96532.28;4120263;28;20241;-44
2023/10/27 09:02:01;;;;;;;4.57;0.55;;;;;;;10.63;100.00;96530.91;4120765;28;20698;-44
2023/10/27 09:04:14;;;;;;;0.68;0.68;;;;;;;10.69;100.00;96539.81;4108327;28;20223;-44
2023/10/27 09:06:16;;;;;;;0.60;0.60;;;;;;;10.72;100.00;96545.50;4123942;28;20209;-45
2023/10/27 09:08:21;;;;;;;0.60;0.60;;;;;;;10.74;100.00;96547.94;4101043;28;20212;-44
2023/10/27 09:10:23;;;;;;;0.80;0.80;;;;;;;10.81;100.00;96548.38;4107295;28;20210;-45
2023/10/27 09:12:30;;;;;;;2.28;0.88;;;;;;;10.81;100.00;96545.63;4117464;28;20206;-45
2023/10/27 09:14:32;;;;;;;0.90;0.90;;;;;;;10.83;100.00;96546.97;4120458;28;20404;-44
2023/10/27 09:16:34;;;;;;;0.70;0.70;;;;;;;10.87;100.00;96552.66;4106226;28;21119;-45
2023/10/27 09:18:36;;;;;;;0.80;0.80;;;;;;;10.88;100.00;96553.16;4099683;28;20211;-44
2023/10/27 09:20:48;;;;;;;0.65;0.65;;;;;;;10.91;100.00;96554.47;4138767;28;20256;-44
2023/10/27 09:22:57;;;;;;;7.30;0.95;;;;;;;10.98;100.00;96558.44;4122340;28;20276;-44
2023/10/27 09:25:14;;;;;;;0.68;0.68;;;;;;;11.02;100.00;96556.72;4119445;28;20229;-45
2023/10/27 09:27:25;;;;;;;0.68;0.68;;;;;;;10.96;100.00;96555.19;4106424;28;20214;-47
2023/10/27 09:29:31;;;;;;;0.70;0.70;;;;;;;11.11;100.00;96549.44;4118113;28;20301;-44
2023/10/27 09:31:34;;;;;;;0.68;0.68;;;;;;;11.34;100.00;96553.13;4107244;28;20230;-45